createdAt,value
2023-03-22T00:00:19.717Z,97333.25
2023-03-22T00:02:47.386Z,97330.44
2023-03-22T00:05:15.025Z,97317.75
2023-03-22T00:07:43.940Z,97313.19
2023-03-22T00:10:11.589Z,97315.91
2023-03-22T00:12:39.125Z,97317.28
2023-03-22T00:15:07.598Z,97316.09
2023-03-22T00:17:36.739Z,97316.94
2023-03-22T00:20:06.358Z,97308.56
2023-03-22T00:22:34.084Z,97303.41
2023-03-22T00:25:03.152Z,97311.09
2023-03-22T00:27:31.190Z,97302.59
2023-03-22T00:29:58.858Z,97291.13
2023-03-22T00:32:26.690Z,97288.59
2023-03-22T00:34:54.409Z,97289.63
2023-03-22T00:37:22.385Z,97277.78
2023-03-22T00:39:50.089Z,97268.97
2023-03-22T00:42:19.230Z,97274.88
2023-03-22T00:44:49.389Z,97274.84
2023-03-22T00:47:17.025Z,97267.59
2023-03-22T00:49:44.700Z,97274.00
2023-03-22T00:52:12.552Z,97265.19
2023-03-22T00:54:40.359Z,97262.34
2023-03-22T00:57:08.060Z,97265.75
2023-03-22T00:59:38.686Z,97253.38
2023-03-22T01:02:06.527Z,97246.59
2023-03-22T01:04:35.775Z,97249.88
2023-03-22T01:07:07.802Z,97248.88
2023-03-22T01:09:37.313Z,97254.03
2023-03-22T01:12:05.096Z,97247.38
2023-03-22T01:14:32.845Z,97250.78
2023-03-22T01:17:02.079Z,97249.59
2023-03-22T01:19:29.816Z,97251.94
2023-03-22T01:21:57.811Z,97249.19
2023-03-22T01:24:25.883Z,97245.78
2023-03-22T01:26:53.593Z,97249.69
2023-03-22T01:29:21.286Z,97247.59
2023-03-22T01:31:48.948Z,97246.41
2023-03-22T01:34:18.548Z,97247.75
2023-03-22T01:36:46.293Z,97242.44
2023-03-22T01:39:14.971Z,97234.53
2023-03-22T01:41:44.272Z,97231.47
2023-03-22T01:44:15.943Z,97229.53
2023-03-22T01:46:44.358Z,97224.84
2023-03-22T01:49:13.213Z,97214.81
2023-03-22T01:51:43.877Z,97216.66
2023-03-22T01:54:38.784Z,97218.13
2023-03-22T01:57:19.596Z,97208.44
2023-03-22T01:59:47.593Z,97205.63
2023-03-22T02:02:30.958Z,97212.63
2023-03-22T02:05:09.697Z,97207.97
2023-03-22T02:07:38.771Z,97207.41
2023-03-22T02:10:10.579Z,97198.38
2023-03-22T02:12:50.973Z,97192.28
2023-03-22T02:15:42.936Z,97189.47
2023-03-22T02:18:38.702Z,97197.28
2023-03-22T02:21:23.678Z,97198.31
2023-03-22T02:23:58.750Z,97190.94
2023-03-22T02:26:31.158Z,97201.25
2023-03-22T02:28:59.348Z,97196.97
2023-03-22T02:31:34.159Z,97191.88
2023-03-22T02:34:16.086Z,97189.00
2023-03-22T02:36:52.314Z,97180.78
2023-03-22T02:39:24.551Z,97176.88
2023-03-22T02:41:55.522Z,97164.53
2023-03-22T02:44:25.034Z,97162.97
2023-03-22T02:46:55.029Z,97161.34
2023-03-22T02:49:23.244Z,97168.50
2023-03-22T02:51:51.566Z,97168.69
2023-03-22T02:54:19.660Z,97177.97
2023-03-22T02:56:49.202Z,97178.63
2023-03-22T02:59:16.964Z,97172.28
2023-03-22T03:01:45.538Z,97171.25
2023-03-22T03:04:15.628Z,97178.53
2023-03-22T03:06:46.276Z,97181.22
2023-03-22T03:09:18.126Z,97178.59
2023-03-22T03:11:46.618Z,97176.56
2023-03-22T03:14:22.901Z,97181.25
2023-03-22T03:16:52.359Z,97164.94
2023-03-22T03:19:20.902Z,97178.81
2023-03-22T03:21:50.624Z,97188.47
2023-03-22T03:24:19.923Z,97187.19
2023-03-22T03:26:49.359Z,97193.34
2023-03-22T03:29:18.043Z,97187.19
2023-03-22T03:31:49.931Z,97196.53
2023-03-22T03:34:18.568Z,97189.00
2023-03-22T03:36:47.469Z,97195.34
2023-03-22T03:39:15.705Z,97196.31
2023-03-22T03:41:43.426Z,97199.91
2023-03-22T03:44:11.241Z,97200.59
2023-03-22T03:46:38.896Z,97201.06
2023-03-22T03:49:08.007Z,97207.78
2023-03-22T03:51:45.901Z,97212.03
2023-03-22T03:54:13.696Z,97210.75
2023-03-22T03:56:41.446Z,97201.94
2023-03-22T03:59:09.320Z,97195.53
2023-03-22T04:01:37.534Z,97207.28
2023-03-22T04:04:15.973Z,97213.28
2023-03-22T04:06:56.764Z,97218.34
2023-03-22T04:09:25.290Z,97224.22
2023-03-22T04:11:57.327Z,97228.34
2023-03-22T04:14:25.756Z,97240.41
2023-03-22T04:16:55.546Z,97236.81
2023-03-22T04:19:26.789Z,97241.13
2023-03-22T04:21:54.638Z,97246.03
2023-03-22T04:24:22.473Z,97230.38
2023-03-22T04:26:52.737Z,97236.75
2023-03-22T04:29:24.992Z,97225.72
2023-03-22T04:32:01.746Z,97234.91
2023-03-22T04:34:38.156Z,97229.03
2023-03-22T04:37:11.359Z,97232.22
2023-03-22T04:40:09.720Z,97231.94
2023-03-22T04:42:46.707Z,97226.22
2023-03-22T04:45:29.203Z,97223.31
2023-03-22T04:48:00.952Z,97220.06
2023-03-22T04:50:30.994Z,97222.81
2023-03-22T04:53:03.234Z,97215.19
2023-03-22T04:55:34.192Z,97202.59
2023-03-22T04:58:02.537Z,97209.91
2023-03-22T05:00:30.661Z,97214.59
2023-03-22T05:02:59.939Z,97220.78
2023-03-22T05:05:36.358Z,97226.66
2023-03-22T05:08:06.768Z,97214.94
2023-03-22T05:10:34.481Z,97213.28
2023-03-22T05:13:02.196Z,97210.75
2023-03-22T05:15:33.889Z,97217.59
2023-03-22T05:18:03.925Z,97212.84
2023-03-22T05:20:32.609Z,97213.22
2023-03-22T05:23:21.307Z,97206.06
2023-03-22T05:25:53.445Z,97215.22
2023-03-22T05:28:22.502Z,97215.38
2023-03-22T05:31:04.428Z,97212.31
2023-03-22T05:33:46.732Z,97210.94
2023-03-22T05:36:17.267Z,97210.94
2023-03-22T05:39:06.359Z,97213.56
2023-03-22T05:41:36.530Z,97217.81
2023-03-22T05:44:05.250Z,97214.13
2023-03-22T05:46:33.939Z,97212.59
2023-03-22T05:49:24.851Z,97217.91
2023-03-22T05:51:52.761Z,97220.19
2023-03-22T05:54:24.660Z,97221.00
2023-03-22T05:56:55.663Z,97208.94
2023-03-22T05:59:24.335Z,97207.63
2023-03-22T06:01:52.210Z,97216.63
2023-03-22T06:04:23.822Z,97217.69
2023-03-22T06:07:12.708Z,97217.88
2023-03-22T06:09:45.304Z,97213.84
2023-03-22T06:12:17.486Z,97203.34
2023-03-22T06:14:50.438Z,97209.88
2023-03-22T06:17:30.031Z,97213.69
2023-03-22T06:19:57.804Z,97209.44
2023-03-22T06:22:26.007Z,97208.06
2023-03-22T06:24:55.402Z,97197.91
2023-03-22T06:27:33.396Z,97199.72
2023-03-22T06:30:01.102Z,97203.75
2023-03-22T06:32:28.980Z,97204.84
2023-03-22T06:34:57.606Z,97200.56
2023-03-22T06:37:26.295Z,97208.69
2023-03-22T06:39:56.806Z,97209.34
2023-03-22T06:42:26.902Z,97213.22
2023-03-22T06:45:04.474Z,97205.84
2023-03-22T06:47:35.474Z,97218.41
2023-03-22T06:50:15.910Z,97231.53
2023-03-22T06:53:05.537Z,97223.72
2023-03-22T06:55:35.836Z,97229.19
2023-03-22T06:58:12.618Z,97229.34
2023-03-22T07:00:40.573Z,97227.44
2023-03-22T07:03:09.593Z,97234.88
2023-03-22T07:06:01.676Z,97233.00
2023-03-22T07:08:31.470Z,97223.81
2023-03-22T07:11:00.543Z,97234.63
2023-03-22T07:13:28.780Z,97234.53
2023-03-22T07:16:01.267Z,97235.72
2023-03-22T07:18:36.768Z,97226.53
2023-03-22T07:21:04.868Z,97228.06
2023-03-22T07:23:33.837Z,97220.75
2023-03-22T07:26:08.884Z,97216.41
2023-03-22T07:28:41.544Z,97209.25
2023-03-22T07:31:11.813Z,97206.91
2023-03-22T07:34:01.569Z,97205.78
2023-03-22T07:36:32.828Z,97198.28
2023-03-22T07:39:00.599Z,97194.63
2023-03-22T07:41:34.080Z,97186.84
2023-03-22T07:44:20.284Z,97184.16
2023-03-22T07:46:59.503Z,97172.53
2023-03-22T07:49:33.581Z,97162.88
2023-03-22T07:52:08.557Z,97156.94
2023-03-22T07:54:36.305Z,97162.66
2023-03-22T07:57:08.688Z,97156.66
2023-03-22T07:59:41.948Z,97143.81
2023-03-22T08:02:10.592Z,97141.06
2023-03-22T08:04:44.419Z,97140.66
2023-03-22T08:07:25.111Z,97126.44
2023-03-22T08:09:52.797Z,97124.50
2023-03-22T08:12:21.890Z,97123.25
2023-03-22T08:14:57.244Z,97117.66
2023-03-22T08:17:27.087Z,97115.69
2023-03-22T08:19:55.889Z,97111.22
2023-03-22T08:22:33.756Z,97100.88
2023-03-22T08:25:19.581Z,97097.44
2023-03-22T08:27:49.649Z,97092.16
2023-03-22T08:30:17.429Z,97075.91
2023-03-22T08:32:45.483Z,97078.34
2023-03-22T08:35:13.456Z,97072.13
2023-03-22T08:37:42.722Z,97068.25
2023-03-22T08:40:11.865Z,97071.63
2023-03-22T08:42:48.800Z,97065.34
2023-03-22T08:45:16.760Z,97054.09
2023-03-22T08:47:52.148Z,97051.97
2023-03-22T08:50:23.377Z,97054.56
2023-03-22T08:52:58.262Z,97048.09
2023-03-22T08:55:31.671Z,97045.06
2023-03-22T08:58:00.712Z,97040.16
2023-03-22T09:00:48.965Z,97033.50
2023-03-22T09:03:25.877Z,97031.97
2023-03-22T09:05:53.814Z,97020.88
2023-03-22T09:08:21.601Z,97026.06
2023-03-22T09:10:56.269Z,97024.06
2023-03-22T09:13:25.494Z,97023.03
2023-03-22T09:16:00.333Z,97015.97
2023-03-22T09:18:31.823Z,97019.91
2023-03-22T09:21:03.150Z,97012.59
2023-03-22T09:23:37.945Z,97007.94
2023-03-22T09:26:07.596Z,97010.13
2023-03-22T09:28:38.256Z,97000.56
2023-03-22T09:31:08.830Z,97001.38
2023-03-22T09:33:38.826Z,97006.22
2023-03-22T09:36:07.021Z,97001.47
2023-03-22T09:38:36.002Z,96999.41
2023-03-22T09:41:04.772Z,96984.94
2023-03-22T09:43:37.156Z,96991.53
2023-03-22T09:46:06.886Z,96989.25
2023-03-22T09:48:34.941Z,96988.25
2023-03-22T09:51:02.914Z,96982.28
2023-03-22T09:53:30.729Z,96981.38
2023-03-22T09:55:59.888Z,96972.44
2023-03-22T09:58:29.195Z,96964.19
2023-03-22T10:00:59.173Z,96972.91
2023-03-22T10:03:30.570Z,96974.25
2023-03-22T10:05:58.781Z,96975.56
2023-03-22T10:08:42.195Z,96968.69
2023-03-22T10:11:11.746Z,96963.41
2023-03-22T10:13:40.797Z,96958.63
2023-03-22T10:16:11.531Z,96955.44
2023-03-22T10:18:39.518Z,96955.03
2023-03-22T10:21:07.560Z,96955.84
2023-03-22T10:23:35.889Z,96965.31
2023-03-22T10:26:03.629Z,96969.13
2023-03-22T10:28:32.626Z,96967.06
2023-03-22T10:31:00.353Z,96955.88
2023-03-22T10:33:32.070Z,96961.91
2023-03-22T10:35:59.643Z,96946.44
2023-03-22T10:38:27.834Z,96948.22
2023-03-22T10:40:55.867Z,96936.09
2023-03-22T10:43:24.237Z,96944.63
2023-03-22T10:45:52.136Z,96933.34
2023-03-22T10:48:21.825Z,96929.78
2023-03-22T10:50:50.724Z,96933.91
2023-03-22T10:53:20.885Z,96925.47
2023-03-22T10:55:48.410Z,96920.41
2023-03-22T10:58:16.636Z,96915.53
2023-03-22T11:00:47.497Z,96920.88
2023-03-22T11:07:11.906Z,96913.34
2023-03-22T11:09:39.637Z,96916.41
2023-03-22T11:12:07.247Z,96895.22
2023-03-22T11:14:35.417Z,96891.50
2023-03-22T11:17:05.049Z,96901.41
2023-03-22T11:19:33.190Z,96907.56
2023-03-22T11:22:00.854Z,96891.00
2023-03-22T11:24:30.979Z,96896.06
2023-03-22T11:27:05.518Z,96884.34
2023-03-22T11:29:40.282Z,96882.72
2023-03-22T11:32:14.874Z,96884.91
2023-03-22T11:34:42.437Z,96869.41
2023-03-22T11:37:09.972Z,96877.25
2023-03-22T11:39:38.879Z,96886.91
2023-03-22T11:42:06.839Z,96883.47
2023-03-22T11:44:35.595Z,96871.91
2023-03-22T11:47:03.379Z,96869.22
2023-03-22T11:49:35.428Z,96861.88
2023-03-22T11:52:08.297Z,96878.31
2023-03-22T11:54:36.216Z,96871.75
2023-03-22T11:57:05.858Z,96861.22
2023-03-22T11:59:37.734Z,96854.94
2023-03-22T12:02:06.580Z,96857.47
2023-03-22T12:04:35.591Z,96843.94
2023-03-22T12:07:04.562Z,96846.41
2023-03-22T12:09:35.746Z,96853.63
2023-03-22T12:12:04.993Z,96846.34
2023-03-22T12:14:34.395Z,96850.53
2023-03-22T12:17:02.719Z,96857.94
2023-03-22T12:19:43.244Z,96844.28
2023-03-22T12:22:12.275Z,96849.03
2023-03-22T12:24:41.314Z,96841.00
2023-03-22T12:27:14.272Z,96850.03
2023-03-22T12:29:42.337Z,96837.00
2023-03-22T12:32:10.613Z,96845.34
2023-03-22T12:34:39.657Z,96830.09
2023-03-22T12:37:07.836Z,96836.69
2023-03-22T12:39:36.827Z,96842.28
2023-03-22T12:42:05.002Z,96840.63
2023-03-22T12:44:34.301Z,96843.09
2023-03-22T12:47:02.374Z,96836.31
2023-03-22T12:49:31.404Z,96834.97
2023-03-22T12:52:02.031Z,96839.41
2023-03-22T12:54:29.733Z,96836.16
2023-03-22T12:56:57.392Z,96839.88
2023-03-22T12:59:25.376Z,96835.97
2023-03-22T13:01:54.843Z,96832.25
2023-03-22T13:04:29.838Z,96833.59
2023-03-22T13:06:57.830Z,96829.53
2023-03-22T13:09:38.675Z,96816.84
2023-03-22T13:12:24.809Z,96815.38
2023-03-22T13:14:57.587Z,96817.69
2023-03-22T13:17:40.599Z,96810.78
2023-03-22T13:20:27.849Z,96816.44
2023-03-22T13:23:02.353Z,96799.47
2023-03-22T13:25:30.376Z,96788.56
2023-03-22T13:27:58.334Z,96790.91
2023-03-22T13:30:26.443Z,96785.03
2023-03-22T13:32:56.421Z,96781.59
2023-03-22T13:35:27.953Z,96776.88
2023-03-22T13:37:56.874Z,96762.94
2023-03-22T13:40:28.139Z,96770.13
2023-03-22T13:42:55.746Z,96763.97
2023-03-22T13:45:31.530Z,96760.63
2023-03-22T13:48:04.077Z,96760.84
2023-03-22T13:50:33.198Z,96756.78
2023-03-22T13:53:01.198Z,96752.06
2023-03-22T13:55:41.234Z,96742.38
2023-03-22T13:58:10.223Z,96749.41
2023-03-22T14:00:48.133Z,96734.72
2023-03-22T14:07:14.842Z,96737.38
2023-03-22T14:09:44.534Z,96728.47
2023-03-22T14:12:15.988Z,96731.50
2023-03-22T14:14:44.029Z,96730.69
2023-03-22T14:17:15.570Z,96728.84
2023-03-22T14:19:43.191Z,96735.91
